sensor_id;sensor_type;location;lat;lon;timestamp;P1;durP1;ratioP1;P2;durP2;ratioP2
56141;SDS011;42018;48.588;10.836;2022-09-20T00:00:21;2.55;;;1.20;;
56141;SDS011;42018;48.588;10.836;2022-09-20T00:03:07;2.10;;;1.00;;
56141;SDS011;42018;48.588;10.836;2022-09-20T00:05:54;2.35;;;1.10;;
56141;SDS011;42018;48.588;10.836;2022-09-20T00:08:39;2.33;;;1.08;;
56141;SDS011;42018;48.588;10.836;2022-09-20T00:11:26;2.80;;;1.10;;
56141;SDS011;42018;48.588;10.836;2022-09-20T00:14:14;1.35;;;0.90;;
56141;SDS011;42018;48.588;10.836;2022-09-20T00:16:59;2.42;;;0.90;;
56141;SDS011;42018;48.588;10.836;2022-09-20T00:19:44;2.15;;;1.00;;
56141;SDS011;42018;48.588;10.836;2022-09-20T00:22:30;1.75;;;0.90;;
56141;SDS011;42018;48.588;10.836;2022-09-20T00:25:16;1.83;;;1.00;;
56141;SDS011;42018;48.588;10.836;2022-09-20T00:28:02;2.25;;;0.90;;
56141;SDS011;42018;48.588;10.836;2022-09-20T00:30:48;1.58;;;0.90;;
56141;SDS011;42018;48.588;10.836;2022-09-20T00:33:33;1.98;;;0.93;;
56141;SDS011;42018;48.588;10.836;2022-09-20T00:36:37;2.05;;;1.20;;
56141;SDS011;42018;48.588;10.836;2022-09-20T00:39:22;2.42;;;1.13;;
56141;SDS011;42018;48.588;10.836;2022-09-20T00:42:10;2.10;;;1.00;;
56141;SDS011;42018;48.588;10.836;2022-09-20T00:44:59;1.90;;;1.10;;
56141;SDS011;42018;48.588;10.836;2022-09-20T00:50:57;2.03;;;1.00;;
56141;SDS011;42018;48.588;10.836;2022-09-20T00:53:48;1.50;;;0.90;;
56141;SDS011;42018;48.588;10.836;2022-09-20T00:56:36;2.05;;;1.10;;
56141;SDS011;42018;48.588;10.836;2022-09-20T01:05:01;2.42;;;1.00;;
56141;SDS011;42018;48.588;10.836;2022-09-20T01:07:47;1.70;;;1.10;;
56141;SDS011;42018;48.588;10.836;2022-09-20T01:10:35;2.40;;;1.20;;
56141;SDS011;42018;48.588;10.836;2022-09-20T01:13:21;2.00;;;1.00;;
56141;SDS011;42018;48.588;10.836;2022-09-20T01:16:06;2.15;;;1.10;;
56141;SDS011;42018;48.588;10.836;2022-09-20T01:18:54;2.28;;;1.17;;
56141;SDS011;42018;48.588;10.836;2022-09-20T01:21:42;2.25;;;1.00;;
56141;SDS011;42018;48.588;10.836;2022-09-20T01:24:37;2.25;;;1.10;;
56141;SDS011;42018;48.588;10.836;2022-09-20T01:30:32;2.58;;;1.30;;
56141;SDS011;42018;48.588;10.836;2022-09-20T01:33:39;1.73;;;1.10;;
56141;SDS011;42018;48.588;10.836;2022-09-20T01:43:07;2.28;;;1.10;;
56141;SDS011;42018;48.588;10.836;2022-09-20T01:46:02;2.60;;;1.30;;
56141;SDS011;42018;48.588;10.836;2022-09-20T02:04:57;2.88;;;1.30;;
56141;SDS011;42018;48.588;10.836;2022-09-20T02:08:21;2.47;;;1.25;;
56141;SDS011;42018;48.588;10.836;2022-09-20T02:11:21;3.17;;;1.40;;
56141;SDS011;42018;48.588;10.836;2022-09-20T02:20:11;2.65;;;1.30;;
56141;SDS011;42018;48.588;10.836;2022-09-20T02:38:44;3.22;;;1.40;;
56141;SDS011;42018;48.588;10.836;2022-09-20T02:47:38;3.45;;;1.50;;
56141;SDS011;42018;48.588;10.836;2022-09-20T03:03:02;3.10;;;1.60;;
56141;SDS011;42018;48.588;10.836;2022-09-20T03:15:08;3.50;;;1.90;;
56141;SDS011;42018;48.588;10.836;2022-09-20T03:18:09;3.63;;;1.85;;
56141;SDS011;42018;48.588;10.836;2022-09-20T03:27:29;3.53;;;1.80;;
56141;SDS011;42018;48.588;10.836;2022-09-20T03:33:33;4.75;;;2.10;;
56141;SDS011;42018;48.588;10.836;2022-09-20T03:42:51;4.22;;;2.20;;
56141;SDS011;42018;48.588;10.836;2022-09-20T03:54:33;3.80;;;2.40;;
56141;SDS011;42018;48.588;10.836;2022-09-20T04:04:27;4.50;;;2.47;;
56141;SDS011;42018;48.588;10.836;2022-09-20T04:19:45;4.13;;;2.42;;
56141;SDS011;42018;48.588;10.836;2022-09-20T04:22:37;4.97;;;2.70;;
56141;SDS011;42018;48.588;10.836;2022-09-20T04:25:28;4.75;;;2.70;;
56141;SDS011;42018;48.588;10.836;2022-09-20T04:28:24;5.07;;;2.85;;
56141;SDS011;42018;48.588;10.836;2022-09-20T04:31:21;5.18;;;3.05;;
56141;SDS011;42018;48.588;10.836;2022-09-20T04:34:38;4.72;;;3.08;;
56141;SDS011;42018;48.588;10.836;2022-09-20T04:37:43;4.88;;;3.13;;
56141;SDS011;42018;48.588;10.836;2022-09-20T04:53:04;5.13;;;3.42;;
56141;SDS011;42018;48.588;10.836;2022-09-20T05:29:51;5.88;;;4.80;;
56141;SDS011;42018;48.588;10.836;2022-09-20T05:38:50;4.40;;;2.38;;
56141;SDS011;42018;48.588;10.836;2022-09-20T05:41:45;5.68;;;2.50;;
56141;SDS011;42018;48.588;10.836;2022-09-20T05:47:55;5.57;;;2.30;;
56141;SDS011;42018;48.588;10.836;2022-09-20T05:56:56;8.27;;;5.93;;
56141;SDS011;42018;48.588;10.836;2022-09-20T06:03:15;6.18;;;4.60;;
56141;SDS011;42018;48.588;10.836;2022-09-20T06:06:21;6.25;;;3.03;;
56141;SDS011;42018;48.588;10.836;2022-09-20T06:12:04;5.22;;;3.00;;
56141;SDS011;42018;48.588;10.836;2022-09-20T06:18:19;4.35;;;2.38;;
56141;SDS011;42018;48.588;10.836;2022-09-20T06:21:22;4.57;;;2.03;;
56141;SDS011;42018;48.588;10.836;2022-09-20T06:27:09;4.72;;;1.98;;
56141;SDS011;42018;48.588;10.836;2022-09-20T06:30:17;3.65;;;2.00;;
56141;SDS011;42018;48.588;10.836;2022-09-20T06:41:59;4.82;;;2.25;;
56141;SDS011;42018;48.588;10.836;2022-09-20T06:44:45;4.35;;;2.20;;
56141;SDS011;42018;48.588;10.836;2022-09-20T06:47:31;5.93;;;2.72;;
56141;SDS011;42018;48.588;10.836;2022-09-20T06:50:16;4.97;;;3.20;;
56141;SDS011;42018;48.588;10.836;2022-09-20T06:53:02;5.95;;;2.53;;
56141;SDS011;42018;48.588;10.836;2022-09-20T06:55:47;4.43;;;2.33;;
56141;SDS011;42018;48.588;10.836;2022-09-20T06:58:33;4.10;;;2.20;;
56141;SDS011;42018;48.588;10.836;2022-09-20T07:01:19;4.82;;;2.40;;
56141;SDS011;42018;48.588;10.836;2022-09-20T07:04:05;5.40;;;2.22;;
56141;SDS011;42018;48.588;10.836;2022-09-20T07:07:03;4.22;;;2.10;;
56141;SDS011;42018;48.588;10.836;2022-09-20T07:09:50;4.32;;;2.22;;
56141;SDS011;42018;48.588;10.836;2022-09-20T07:12:35;4.25;;;2.38;;
56141;SDS011;42018;48.588;10.836;2022-09-20T07:15:21;4.72;;;2.50;;
56141;SDS011;42018;48.588;10.836;2022-09-20T07:18:08;5.60;;;2.47;;
56141;SDS011;42018;48.588;10.836;2022-09-20T07:20:54;4.93;;;2.50;;
56141;SDS011;42018;48.588;10.836;2022-09-20T07:23:42;5.72;;;2.30;;
56141;SDS011;42018;48.588;10.836;2022-09-20T07:26:32;5.55;;;2.03;;
56141;SDS011;42018;48.588;10.836;2022-09-20T07:29:18;4.40;;;2.20;;
56141;SDS011;42018;48.588;10.836;2022-09-20T07:32:04;5.20;;;2.50;;
56141;SDS011;42018;48.588;10.836;2022-09-20T07:34:49;5.45;;;2.50;;
56141;SDS011;42018;48.588;10.836;2022-09-20T07:37:35;5.15;;;2.40;;
56141;SDS011;42018;48.588;10.836;2022-09-20T07:40:21;5.20;;;2.20;;
56141;SDS011;42018;48.588;10.836;2022-09-20T07:43:06;4.68;;;2.28;;
56141;SDS011;42018;48.588;10.836;2022-09-20T07:45:53;4.03;;;2.10;;
56141;SDS011;42018;48.588;10.836;2022-09-20T07:48:39;4.65;;;2.10;;
56141;SDS011;42018;48.588;10.836;2022-09-20T07:51:25;4.88;;;2.10;;
56141;SDS011;42018;48.588;10.836;2022-09-20T07:54:11;4.82;;;2.20;;
56141;SDS011;42018;48.588;10.836;2022-09-20T07:56:56;5.28;;;2.47;;
56141;SDS011;42018;48.588;10.836;2022-09-20T07:59:41;4.80;;;2.13;;
56141;SDS011;42018;48.588;10.836;2022-09-20T08:02:27;5.35;;;2.30;;
56141;SDS011;42018;48.588;10.836;2022-09-20T08:05:12;4.22;;;2.20;;
56141;SDS011;42018;48.588;10.836;2022-09-20T08:07:57;7.60;;;2.25;;
56141;SDS011;42018;48.588;10.836;2022-09-20T08:10:45;6.45;;;2.67;;
56141;SDS011;42018;48.588;10.836;2022-09-20T08:13:34;5.47;;;2.50;;
56141;SDS011;42018;48.588;10.836;2022-09-20T08:16:20;6.43;;;2.30;;
56141;SDS011;42018;48.588;10.836;2022-09-20T08:19:06;4.72;;;2.30;;
56141;SDS011;42018;48.588;10.836;2022-09-20T08:21:51;5.95;;;2.30;;
56141;SDS011;42018;48.588;10.836;2022-09-20T08:24:40;6.10;;;2.40;;
56141;SDS011;42018;48.588;10.836;2022-09-20T08:27:26;5.20;;;2.50;;
56141;SDS011;42018;48.588;10.836;2022-09-20T08:30:11;5.57;;;2.63;;
56141;SDS011;42018;48.588;10.836;2022-09-20T08:32:57;4.65;;;2.10;;
56141;SDS011;42018;48.588;10.836;2022-09-20T08:35:46;5.25;;;2.20;;
56141;SDS011;42018;48.588;10.836;2022-09-20T08:38:33;5.35;;;2.28;;
56141;SDS011;42018;48.588;10.836;2022-09-20T08:44:26;5.50;;;2.30;;
56141;SDS011;42018;48.588;10.836;2022-09-20T08:47:24;4.35;;;1.95;;
56141;SDS011;42018;48.588;10.836;2022-09-20T08:50:21;5.13;;;2.20;;
56141;SDS011;42018;48.588;10.836;2022-09-20T08:53:08;4.40;;;1.90;;
56141;SDS011;42018;48.588;10.836;2022-09-20T08:55:58;4.25;;;2.00;;
56141;SDS011;42018;48.588;10.836;2022-09-20T08:58:43;5.10;;;2.08;;
56141;SDS011;42018;48.588;10.836;2022-09-20T09:01:30;4.22;;;1.88;;
56141;SDS011;42018;48.588;10.836;2022-09-20T09:04:24;4.80;;;1.50;;
56141;SDS011;42018;48.588;10.836;2022-09-20T09:07:19;4.55;;;1.70;;
56141;SDS011;42018;48.588;10.836;2022-09-20T09:10:07;4.13;;;1.73;;
56141;SDS011;42018;48.588;10.836;2022-09-20T09:12:53;4.43;;;1.80;;
56141;SDS011;42018;48.588;10.836;2022-09-20T09:15:40;4.82;;;1.52;;
56141;SDS011;42018;48.588;10.836;2022-09-20T09:18:32;4.88;;;1.50;;
56141;SDS011;42018;48.588;10.836;2022-09-20T09:21:22;4.63;;;1.70;;
56141;SDS011;42018;48.588;10.836;2022-09-20T09:24:15;4.43;;;1.40;;
56141;SDS011;42018;48.588;10.836;2022-09-20T09:27:05;3.78;;;1.30;;
56141;SDS011;42018;48.588;10.836;2022-09-20T09:29:56;4.30;;;1.50;;
56141;SDS011;42018;48.588;10.836;2022-09-20T09:32:41;4.00;;;1.05;;
56141;SDS011;42018;48.588;10.836;2022-09-20T09:35:28;4.80;;;1.40;;
56141;SDS011;42018;48.588;10.836;2022-09-20T09:38:16;4.72;;;1.20;;
56141;SDS011;42018;48.588;10.836;2022-09-20T09:41:06;4.82;;;1.40;;
56141;SDS011;42018;48.588;10.836;2022-09-20T09:47:27;3.58;;;1.00;;
56141;SDS011;42018;48.588;10.836;2022-09-20T09:50:20;2.78;;;1.05;;
56141;SDS011;42018;48.588;10.836;2022-09-20T09:53:09;4.70;;;1.10;;
56141;SDS011;42018;48.588;10.836;2022-09-20T10:04:59;4.07;;;1.00;;
56141;SDS011;42018;48.588;10.836;2022-09-20T10:07:54;4.07;;;1.20;;
56141;SDS011;42018;48.588;10.836;2022-09-20T10:14:13;4.38;;;1.52;;
56141;SDS011;42018;48.588;10.836;2022-09-20T10:20:23;2.60;;;1.13;;
56141;SDS011;42018;48.588;10.836;2022-09-20T10:29:11;2.90;;;0.90;;
56141;SDS011;42018;48.588;10.836;2022-09-20T10:38:33;2.25;;;0.80;;
56141;SDS011;42018;48.588;10.836;2022-09-20T10:50:58;2.85;;;0.82;;
56141;SDS011;42018;48.588;10.836;2022-09-20T10:53:59;2.80;;;0.90;;
56141;SDS011;42018;48.588;10.836;2022-09-20T11:03:29;2.80;;;0.90;;
56141;SDS011;42018;48.588;10.836;2022-09-20T11:06:23;2.35;;;0.82;;
56141;SDS011;42018;48.588;10.836;2022-09-20T11:09:23;4.13;;;1.02;;
56141;SDS011;42018;48.588;10.836;2022-09-20T11:15:22;3.58;;;1.00;;
56141;SDS011;42018;48.588;10.836;2022-09-20T11:18:13;2.92;;;0.95;;
56141;SDS011;42018;48.588;10.836;2022-09-20T11:21:09;2.28;;;0.90;;
56141;SDS011;42018;48.588;10.836;2022-09-20T11:30:18;2.67;;;1.00;;
56141;SDS011;42018;48.588;10.836;2022-09-20T11:36:03;3.67;;;1.02;;
56141;SDS011;42018;48.588;10.836;2022-09-20T11:38:56;2.88;;;1.00;;
56141;SDS011;42018;48.588;10.836;2022-09-20T11:41:48;2.40;;;0.90;;
56141;SDS011;42018;48.588;10.836;2022-09-20T11:44:37;3.30;;;1.00;;
56141;SDS011;42018;48.588;10.836;2022-09-20T11:56:27;4.28;;;1.13;;
56141;SDS011;42018;48.588;10.836;2022-09-20T12:02:17;4.20;;;1.20;;
56141;SDS011;42018;48.588;10.836;2022-09-20T12:05:21;4.47;;;1.10;;
56141;SDS011;42018;48.588;10.836;2022-09-20T12:08:21;2.38;;;0.90;;
56141;SDS011;42018;48.588;10.836;2022-09-20T12:11:14;3.58;;;1.23;;
56141;SDS011;42018;48.588;10.836;2022-09-20T12:14:18;2.95;;;1.00;;
56141;SDS011;42018;48.588;10.836;2022-09-20T12:24:25;2.65;;;0.90;;
56141;SDS011;42018;48.588;10.836;2022-09-20T12:26:41;3.45;;;0.90;;
56141;SDS011;42018;48.588;10.836;2022-09-20T12:46:41;3.65;;;1.10;;
56141;SDS011;42018;48.588;10.836;2022-09-20T12:52:49;3.30;;;1.00;;
56141;SDS011;42018;48.588;10.836;2022-09-20T12:55:42;2.88;;;0.98;;
56141;SDS011;42018;48.588;10.836;2022-09-20T12:58:51;3.20;;;1.00;;
56141;SDS011;42018;48.588;10.836;2022-09-20T13:01:39;2.30;;;1.00;;
56141;SDS011;42018;48.588;10.836;2022-09-20T13:07:41;3.38;;;1.08;;
56141;SDS011;42018;48.588;10.836;2022-09-20T13:10:32;2.75;;;0.90;;
56141;SDS011;42018;48.588;10.836;2022-09-20T13:22:38;3.25;;;1.35;;
56141;SDS011;42018;48.588;10.836;2022-09-20T13:25:27;3.08;;;0.98;;
56141;SDS011;42018;48.588;10.836;2022-09-20T13:28:25;3.25;;;0.98;;
56141;SDS011;42018;48.588;10.836;2022-09-20T13:34:11;3.08;;;1.10;;
56141;SDS011;42018;48.588;10.836;2022-09-20T13:36:58;2.55;;;0.90;;
56141;SDS011;42018;48.588;10.836;2022-09-20T13:39:44;3.47;;;1.00;;
56141;SDS011;42018;48.588;10.836;2022-09-20T13:42:30;3.10;;;1.15;;
56141;SDS011;42018;48.588;10.836;2022-09-20T13:45:19;1.90;;;0.93;;
56141;SDS011;42018;48.588;10.836;2022-09-20T13:48:06;2.83;;;0.90;;
56141;SDS011;42018;48.588;10.836;2022-09-20T13:50:53;2.88;;;1.00;;
56141;SDS011;42018;48.588;10.836;2022-09-20T13:53:40;2.10;;;0.80;;
56141;SDS011;42018;48.588;10.836;2022-09-20T13:56:26;3.50;;;0.88;;
56141;SDS011;42018;48.588;10.836;2022-09-20T13:59:13;2.13;;;0.70;;
56141;SDS011;42018;48.588;10.836;2022-09-20T14:02:03;2.87;;;0.97;;
56141;SDS011;42018;48.588;10.836;2022-09-20T14:04:49;4.38;;;1.17;;
56141;SDS011;42018;48.588;10.836;2022-09-20T14:07:38;3.00;;;1.00;;
56141;SDS011;42018;48.588;10.836;2022-09-20T14:10:33;3.70;;;1.15;;
56141;SDS011;42018;48.588;10.836;2022-09-20T14:13:21;3.88;;;1.00;;
56141;SDS011;42018;48.588;10.836;2022-09-20T14:16:06;3.38;;;1.10;;
56141;SDS011;42018;48.588;10.836;2022-09-20T14:18:53;4.65;;;1.08;;
56141;SDS011;42018;48.588;10.836;2022-09-20T14:21:39;2.70;;;0.90;;
56141;SDS011;42018;48.588;10.836;2022-09-20T14:24:27;2.22;;;1.02;;
56141;SDS011;42018;48.588;10.836;2022-09-20T14:27:17;2.45;;;1.00;;
56141;SDS011;42018;48.588;10.836;2022-09-20T14:30:26;2.65;;;1.02;;
56141;SDS011;42018;48.588;10.836;2022-09-20T14:33:20;5.88;;;1.20;;
56141;SDS011;42018;48.588;10.836;2022-09-20T14:36:09;3.80;;;1.02;;
56141;SDS011;42018;48.588;10.836;2022-09-20T14:39:02;3.38;;;1.50;;
56141;SDS011;42018;48.588;10.836;2022-09-20T14:41:49;3.03;;;0.95;;
56141;SDS011;42018;48.588;10.836;2022-09-20T14:44:34;1.58;;;0.80;;
56141;SDS011;42018;48.588;10.836;2022-09-20T14:47:25;3.45;;;1.00;;
56141;SDS011;42018;48.588;10.836;2022-09-20T14:53:24;3.92;;;1.30;;
56141;SDS011;42018;48.588;10.836;2022-09-20T14:56:11;4.38;;;1.75;;
56141;SDS011;42018;48.588;10.836;2022-09-20T14:58:59;3.90;;;1.00;;
56141;SDS011;42018;48.588;10.836;2022-09-20T15:02:10;2.92;;;1.20;;
56141;SDS011;42018;48.588;10.836;2022-09-20T15:04:58;2.95;;;1.00;;
56141;SDS011;42018;48.588;10.836;2022-09-20T15:07:45;2.72;;;1.10;;
56141;SDS011;42018;48.588;10.836;2022-09-20T15:10:30;3.47;;;1.70;;
56141;SDS011;42018;48.588;10.836;2022-09-20T15:13:16;3.38;;;1.77;;
56141;SDS011;42018;48.588;10.836;2022-09-20T15:16:02;2.30;;;1.00;;
56141;SDS011;42018;48.588;10.836;2022-09-20T15:18:47;2.08;;;0.80;;
56141;SDS011;42018;48.588;10.836;2022-09-20T15:21:32;3.88;;;1.10;;
56141;SDS011;42018;48.588;10.836;2022-09-20T15:24:18;2.63;;;1.05;;
56141;SDS011;42018;48.588;10.836;2022-09-20T15:27:03;2.55;;;1.02;;
56141;SDS011;42018;48.588;10.836;2022-09-20T15:29:49;2.80;;;0.90;;
56141;SDS011;42018;48.588;10.836;2022-09-20T15:32:34;2.47;;;0.70;;
56141;SDS011;42018;48.588;10.836;2022-09-20T15:35:20;3.17;;;0.90;;
56141;SDS011;42018;48.588;10.836;2022-09-20T15:38:05;2.47;;;0.90;;
56141;SDS011;42018;48.588;10.836;2022-09-20T15:40:55;3.10;;;1.10;;
56141;SDS011;42018;48.588;10.836;2022-09-20T15:43:40;3.45;;;0.95;;
56141;SDS011;42018;48.588;10.836;2022-09-20T15:46:27;2.85;;;0.90;;
56141;SDS011;42018;48.588;10.836;2022-09-20T15:49:12;3.22;;;0.98;;
56141;SDS011;42018;48.588;10.836;2022-09-20T15:51:57;3.75;;;1.00;;
56141;SDS011;42018;48.588;10.836;2022-09-20T15:54:43;3.85;;;1.05;;
56141;SDS011;42018;48.588;10.836;2022-09-20T15:57:29;2.75;;;0.82;;
56141;SDS011;42018;48.588;10.836;2022-09-20T16:00:15;2.60;;;0.80;;
56141;SDS011;42018;48.588;10.836;2022-09-20T16:03:04;3.63;;;0.90;;
56141;SDS011;42018;48.588;10.836;2022-09-20T16:05:59;3.05;;;0.90;;
56141;SDS011;42018;48.588;10.836;2022-09-20T16:08:45;2.03;;;0.80;;
56141;SDS011;42018;48.588;10.836;2022-09-20T16:11:31;1.88;;;0.77;;
56141;SDS011;42018;48.588;10.836;2022-09-20T16:14:17;1.50;;;0.50;;
56141;SDS011;42018;48.588;10.836;2022-09-20T16:17:02;1.50;;;0.70;;
56141;SDS011;42018;48.588;10.836;2022-09-20T16:19:48;0.93;;;0.50;;
56141;SDS011;42018;48.588;10.836;2022-09-20T16:22:34;1.60;;;0.70;;
56141;SDS011;42018;48.588;10.836;2022-09-20T16:25:20;0.82;;;0.68;;
56141;SDS011;42018;48.588;10.836;2022-09-20T16:28:05;0.98;;;0.60;;
56141;SDS011;42018;48.588;10.836;2022-09-20T16:30:57;1.50;;;0.60;;
56141;SDS011;42018;48.588;10.836;2022-09-20T16:33:43;2.28;;;0.70;;
56141;SDS011;42018;48.588;10.836;2022-09-20T16:36:29;1.30;;;0.70;;
56141;SDS011;42018;48.588;10.836;2022-09-20T16:39:16;1.00;;;0.68;;
56141;SDS011;42018;48.588;10.836;2022-09-20T16:42:03;2.15;;;0.80;;
56141;SDS011;42018;48.588;10.836;2022-09-20T16:44:50;2.83;;;1.10;;
56141;SDS011;42018;48.588;10.836;2022-09-20T16:47:35;1.77;;;1.00;;
56141;SDS011;42018;48.588;10.836;2022-09-20T16:50:25;2.63;;;0.97;;
56141;SDS011;42018;48.588;10.836;2022-09-20T16:53:10;1.23;;;0.80;;
56141;SDS011;42018;48.588;10.836;2022-09-20T16:55:55;2.28;;;0.90;;
56141;SDS011;42018;48.588;10.836;2022-09-20T16:58:41;2.28;;;0.98;;
56141;SDS011;42018;48.588;10.836;2022-09-20T17:01:27;1.17;;;0.65;;
56141;SDS011;42018;48.588;10.836;2022-09-20T17:04:14;1.55;;;0.85;;
56141;SDS011;42018;48.588;10.836;2022-09-20T17:07:02;2.53;;;0.88;;
56141;SDS011;42018;48.588;10.836;2022-09-20T17:09:47;1.85;;;0.88;;
56141;SDS011;42018;48.588;10.836;2022-09-20T17:12:33;1.83;;;1.00;;
56141;SDS011;42018;48.588;10.836;2022-09-20T17:15:25;4.15;;;1.50;;
56141;SDS011;42018;48.588;10.836;2022-09-20T17:18:10;2.85;;;1.35;;
56141;SDS011;42018;48.588;10.836;2022-09-20T17:21:04;3.05;;;1.00;;
56141;SDS011;42018;48.588;10.836;2022-09-20T17:23:51;2.10;;;0.90;;
56141;SDS011;42018;48.588;10.836;2022-09-20T17:26:42;1.80;;;0.90;;
56141;SDS011;42018;48.588;10.836;2022-09-20T17:29:29;2.38;;;1.00;;
56141;SDS011;42018;48.588;10.836;2022-09-20T17:32:14;3.72;;;1.60;;
56141;SDS011;42018;48.588;10.836;2022-09-20T17:35:00;4.90;;;2.20;;
56141;SDS011;42018;48.588;10.836;2022-09-20T17:37:45;4.45;;;2.25;;
56141;SDS011;42018;48.588;10.836;2022-09-20T17:40:31;2.75;;;1.40;;
56141;SDS011;42018;48.588;10.836;2022-09-20T17:43:16;3.22;;;1.23;;
56141;SDS011;42018;48.588;10.836;2022-09-20T17:46:05;1.45;;;0.90;;
56141;SDS011;42018;48.588;10.836;2022-09-20T17:48:57;2.30;;;1.00;;
56141;SDS011;42018;48.588;10.836;2022-09-20T17:51:45;2.10;;;0.90;;
56141;SDS011;42018;48.588;10.836;2022-09-20T17:54:31;3.13;;;1.45;;
56141;SDS011;42018;48.588;10.836;2022-09-20T17:57:16;5.25;;;4.00;;
56141;SDS011;42018;48.588;10.836;2022-09-20T18:00:02;2.72;;;1.40;;
56141;SDS011;42018;48.588;10.836;2022-09-20T18:02:48;1.60;;;1.00;;
56141;SDS011;42018;48.588;10.836;2022-09-20T18:05:33;4.10;;;2.45;;
56141;SDS011;42018;48.588;10.836;2022-09-20T18:08:18;4.07;;;3.00;;
56141;SDS011;42018;48.588;10.836;2022-09-20T18:11:04;2.08;;;1.10;;
56141;SDS011;42018;48.588;10.836;2022-09-20T18:13:49;4.78;;;2.63;;
56141;SDS011;42018;48.588;10.836;2022-09-20T18:16:35;2.42;;;1.33;;
56141;SDS011;42018;48.588;10.836;2022-09-20T18:19:21;2.67;;;1.30;;
56141;SDS011;42018;48.588;10.836;2022-09-20T18:22:06;1.65;;;1.00;;
56141;SDS011;42018;48.588;10.836;2022-09-20T18:24:52;3.65;;;1.35;;
56141;SDS011;42018;48.588;10.836;2022-09-20T18:27:38;1.55;;;1.00;;
56141;SDS011;42018;48.588;10.836;2022-09-20T18:30:24;1.90;;;1.05;;
56141;SDS011;42018;48.588;10.836;2022-09-20T18:33:10;2.65;;;1.10;;
56141;SDS011;42018;48.588;10.836;2022-09-20T18:36:03;1.13;;;0.80;;
56141;SDS011;42018;48.588;10.836;2022-09-20T18:38:49;2.08;;;1.10;;
56141;SDS011;42018;48.588;10.836;2022-09-20T18:41:38;1.42;;;0.90;;
56141;SDS011;42018;48.588;10.836;2022-09-20T18:44:26;2.17;;;0.98;;
56141;SDS011;42018;48.588;10.836;2022-09-20T18:47:16;1.80;;;0.93;;
56141;SDS011;42018;48.588;10.836;2022-09-20T18:50:03;1.25;;;0.82;;
56141;SDS011;42018;48.588;10.836;2022-09-20T18:52:49;1.92;;;0.80;;
56141;SDS011;42018;48.588;10.836;2022-09-20T18:55:35;2.17;;;0.90;;
56141;SDS011;42018;48.588;10.836;2022-09-20T18:58:21;1.88;;;0.80;;
56141;SDS011;42018;48.588;10.836;2022-09-20T19:01:23;1.80;;;0.90;;
56141;SDS011;42018;48.588;10.836;2022-09-20T19:13:36;1.50;;;0.90;;
56141;SDS011;42018;48.588;10.836;2022-09-20T19:16:32;1.48;;;1.00;;
56141;SDS011;42018;48.588;10.836;2022-09-20T19:19:31;1.95;;;1.00;;
56141;SDS011;42018;48.588;10.836;2022-09-20T19:25:31;1.55;;;0.90;;
56141;SDS011;42018;48.588;10.836;2022-09-20T19:28:27;2.10;;;0.90;;
56141;SDS011;42018;48.588;10.836;2022-09-20T19:31:29;2.05;;;0.98;;
56141;SDS011;42018;48.588;10.836;2022-09-20T19:34:21;2.33;;;1.10;;
56141;SDS011;42018;48.588;10.836;2022-09-20T19:40:20;2.05;;;1.00;;
56141;SDS011;42018;48.588;10.836;2022-09-20T19:43:35;2.00;;;1.10;;
56141;SDS011;42018;48.588;10.836;2022-09-20T19:46:48;2.22;;;1.10;;
56141;SDS011;42018;48.588;10.836;2022-09-20T19:49:52;2.47;;;1.08;;
56141;SDS011;42018;48.588;10.836;2022-09-20T19:52:45;1.80;;;0.93;;
56141;SDS011;42018;48.588;10.836;2022-09-20T19:55:31;1.48;;;0.90;;
56141;SDS011;42018;48.588;10.836;2022-09-20T19:58:24;2.17;;;1.10;;
56141;SDS011;42018;48.588;10.836;2022-09-20T20:01:09;2.45;;;1.20;;
56141;SDS011;42018;48.588;10.836;2022-09-20T20:03:58;3.10;;;1.10;;
56141;SDS011;42018;48.588;10.836;2022-09-20T20:06:47;1.63;;;1.00;;
56141;SDS011;42018;48.588;10.836;2022-09-20T20:12:54;2.38;;;1.17;;
56141;SDS011;42018;48.588;10.836;2022-09-20T20:15:46;2.75;;;1.10;;
56141;SDS011;42018;48.588;10.836;2022-09-20T20:21:51;2.17;;;1.08;;
56141;SDS011;42018;48.588;10.836;2022-09-20T20:24:51;2.50;;;1.25;;
56141;SDS011;42018;48.588;10.836;2022-09-20T20:27:38;2.00;;;1.10;;
56141;SDS011;42018;48.588;10.836;2022-09-20T20:30:23;2.63;;;1.10;;
56141;SDS011;42018;48.588;10.836;2022-09-20T20:33:13;2.78;;;1.15;;
56141;SDS011;42018;48.588;10.836;2022-09-20T20:36:00;1.92;;;1.02;;
56141;SDS011;42018;48.588;10.836;2022-09-20T20:38:46;2.53;;;1.10;;
56141;SDS011;42018;48.588;10.836;2022-09-20T20:41:34;2.13;;;1.00;;
56141;SDS011;42018;48.588;10.836;2022-09-20T20:44:19;1.60;;;0.93;;
56141;SDS011;42018;48.588;10.836;2022-09-20T20:47:06;2.67;;;1.20;;
56141;SDS011;42018;48.588;10.836;2022-09-20T20:49:51;2.35;;;1.08;;
56141;SDS011;42018;48.588;10.836;2022-09-20T20:52:37;3.92;;;1.30;;
56141;SDS011;42018;48.588;10.836;2022-09-20T20:55:23;2.80;;;1.20;;
56141;SDS011;42018;48.588;10.836;2022-09-20T20:58:08;10.75;;;9.48;;
56141;SDS011;42018;48.588;10.836;2022-09-20T21:00:54;4.13;;;2.20;;
56141;SDS011;42018;48.588;10.836;2022-09-20T21:03:48;3.33;;;1.70;;
56141;SDS011;42018;48.588;10.836;2022-09-20T21:06:39;2.85;;;1.42;;
56141;SDS011;42018;48.588;10.836;2022-09-20T21:09:25;2.95;;;1.25;;
56141;SDS011;42018;48.588;10.836;2022-09-20T21:12:10;3.33;;;1.30;;
56141;SDS011;42018;48.588;10.836;2022-09-20T21:14:57;3.22;;;1.30;;
56141;SDS011;42018;48.588;10.836;2022-09-20T21:17:42;2.92;;;1.40;;
56141;SDS011;42018;48.588;10.836;2022-09-20T21:20:33;2.75;;;1.40;;
56141;SDS011;42018;48.588;10.836;2022-09-20T21:23:19;3.78;;;1.27;;
56141;SDS011;42018;48.588;10.836;2022-09-20T21:26:06;2.85;;;1.30;;
56141;SDS011;42018;48.588;10.836;2022-09-20T21:28:54;2.33;;;1.20;;
56141;SDS011;42018;48.588;10.836;2022-09-20T21:31:48;3.08;;;1.30;;
56141;SDS011;42018;48.588;10.836;2022-09-20T21:34:34;2.92;;;1.45;;
56141;SDS011;42018;48.588;10.836;2022-09-20T21:37:20;2.88;;;1.30;;
56141;SDS011;42018;48.588;10.836;2022-09-20T21:40:06;2.25;;;1.20;;
56141;SDS011;42018;48.588;10.836;2022-09-20T21:42:51;2.42;;;1.13;;
56141;SDS011;42018;48.588;10.836;2022-09-20T21:45:38;2.15;;;1.02;;
56141;SDS011;42018;48.588;10.836;2022-09-20T21:48:24;2.05;;;1.00;;
56141;SDS011;42018;48.588;10.836;2022-09-20T21:51:11;1.77;;;1.10;;
56141;SDS011;42018;48.588;10.836;2022-09-20T21:53:58;2.17;;;1.10;;
56141;SDS011;42018;48.588;10.836;2022-09-20T21:56:45;1.27;;;0.90;;
56141;SDS011;42018;48.588;10.836;2022-09-20T21:59:30;2.05;;;1.02;;
56141;SDS011;42018;48.588;10.836;2022-09-20T22:02:16;2.13;;;1.10;;
56141;SDS011;42018;48.588;10.836;2022-09-20T22:05:01;1.20;;;0.98;;
56141;SDS011;42018;48.588;10.836;2022-09-20T22:07:46;2.97;;;1.27;;
56141;SDS011;42018;48.588;10.836;2022-09-20T22:10:32;1.55;;;1.00;;
56141;SDS011;42018;48.588;10.836;2022-09-20T22:13:17;2.08;;;1.17;;
56141;SDS011;42018;48.588;10.836;2022-09-20T22:16:07;2.03;;;1.15;;
56141;SDS011;42018;48.588;10.836;2022-09-20T22:18:55;1.70;;;1.10;;
56141;SDS011;42018;48.588;10.836;2022-09-20T22:21:44;2.97;;;1.50;;
56141;SDS011;42018;48.588;10.836;2022-09-20T22:24:31;2.42;;;1.13;;
56141;SDS011;42018;48.588;10.836;2022-09-20T22:27:17;2.60;;;1.30;;
56141;SDS011;42018;48.588;10.836;2022-09-20T22:30:02;5.50;;;3.67;;
56141;SDS011;42018;48.588;10.836;2022-09-20T22:32:48;5.05;;;3.20;;
56141;SDS011;42018;48.588;10.836;2022-09-20T22:35:33;3.47;;;1.90;;
56141;SDS011;42018;48.588;10.836;2022-09-20T22:38:19;3.80;;;1.40;;